sensor_id;sensor_type;location;lat;lon;timestamp;temperature;humidity
23685;DHT22;12020;51.384;6.908;2023-07-16T00:02:30;20.10;99.90
23685;DHT22;12020;51.384;6.908;2023-07-16T00:05:10;20.00;99.90
23685;DHT22;12020;51.384;6.908;2023-07-16T00:07:38;20.00;99.90
23685;DHT22;12020;51.384;6.908;2023-07-16T00:10:18;20.10;99.90
23685;DHT22;12020;51.384;6.908;2023-07-16T00:12:46;20.00;99.90
23685;DHT22;12020;51.384;6.908;2023-07-16T00:15:20;20.00;99.90
23685;DHT22;12020;51.384;6.908;2023-07-16T00:17:47;20.00;99.90
23685;DHT22;12020;51.384;6.908;2023-07-16T00:20:15;20.00;99.90
23685;DHT22;12020;51.384;6.908;2023-07-16T00:22:43;19.90;99.90
23685;DHT22;12020;51.384;6.908;2023-07-16T00:25:11;19.90;99.90
23685;DHT22;12020;51.384;6.908;2023-07-16T00:27:37;19.90;99.90
23685;DHT22;12020;51.384;6.908;2023-07-16T00:30:09;19.90;99.90
23685;DHT22;12020;51.384;6.908;2023-07-16T00:32:45;19.90;99.90
23685;DHT22;12020;51.384;6.908;2023-07-16T00:35:11;20.00;99.90
23685;DHT22;12020;51.384;6.908;2023-07-16T00:37:45;20.00;99.90
23685;DHT22;12020;51.384;6.908;2023-07-16T00:40:31;19.90;99.90
23685;DHT22;12020;51.384;6.908;2023-07-16T00:43:00;19.90;99.90
23685;DHT22;12020;51.384;6.908;2023-07-16T00:45:27;19.90;99.90
23685;DHT22;12020;51.384;6.908;2023-07-16T00:47:54;19.90;99.90
23685;DHT22;12020;51.384;6.908;2023-07-16T00:50:23;19.90;99.90
23685;DHT22;12020;51.384;6.908;2023-07-16T00:52:54;19.80;99.90
23685;DHT22;12020;51.384;6.908;2023-07-16T00:55:20;19.70;99.90
23685;DHT22;12020;51.384;6.908;2023-07-16T00:57:54;19.70;99.90
23685;DHT22;12020;51.384;6.908;2023-07-16T01:00:25;19.60;99.90
23685;DHT22;12020;51.384;6.908;2023-07-16T01:03:02;19.60;99.90
23685;DHT22;12020;51.384;6.908;2023-07-16T01:05:59;19.60;99.90
23685;DHT22;12020;51.384;6.908;2023-07-16T01:08:48;19.50;99.90
23685;DHT22;12020;51.384;6.908;2023-07-16T01:11:15;19.50;99.90
23685;DHT22;12020;51.384;6.908;2023-07-16T01:13:43;19.40;99.90
23685;DHT22;12020;51.384;6.908;2023-07-16T01:16:23;19.40;99.90
23685;DHT22;12020;51.384;6.908;2023-07-16T01:19:05;19.40;99.90
23685;DHT22;12020;51.384;6.908;2023-07-16T01:30:15;19.20;99.90
23685;DHT22;12020;51.384;6.908;2023-07-16T01:32:46;19.20;99.90
23685;DHT22;12020;51.384;6.908;2023-07-16T01:35:15;19.30;99.90
23685;DHT22;12020;51.384;6.908;2023-07-16T01:37:44;19.20;99.90
23685;DHT22;12020;51.384;6.908;2023-07-16T01:40:13;19.20;99.90
23685;DHT22;12020;51.384;6.908;2023-07-16T01:42:46;19.20;99.90
23685;DHT22;12020;51.384;6.908;2023-07-16T01:45:19;19.20;99.90
23685;DHT22;12020;51.384;6.908;2023-07-16T01:48:13;19.20;99.90
23685;DHT22;12020;51.384;6.908;2023-07-16T01:50:46;19.20;99.90
23685;DHT22;12020;51.384;6.908;2023-07-16T01:53:18;19.20;99.90
23685;DHT22;12020;51.384;6.908;2023-07-16T01:55:43;19.20;99.90
23685;DHT22;12020;51.384;6.908;2023-07-16T01:58:10;19.20;99.90
23685;DHT22;12020;51.384;6.908;2023-07-16T02:00:41;19.20;99.90
23685;DHT22;12020;51.384;6.908;2023-07-16T02:03:18;19.20;99.90
23685;DHT22;12020;51.384;6.908;2023-07-16T02:05:47;19.20;99.90
23685;DHT22;12020;51.384;6.908;2023-07-16T02:08:13;19.30;99.90
23685;DHT22;12020;51.384;6.908;2023-07-16T02:10:40;19.30;99.90
23685;DHT22;12020;51.384;6.908;2023-07-16T02:13:09;19.30;99.90
23685;DHT22;12020;51.384;6.908;2023-07-16T02:15:34;19.30;99.90
23685;DHT22;12020;51.384;6.908;2023-07-16T02:18:05;19.30;99.90
23685;DHT22;12020;51.384;6.908;2023-07-16T02:20:39;19.30;99.90
23685;DHT22;12020;51.384;6.908;2023-07-16T02:23:07;19.30;99.90
23685;DHT22;12020;51.384;6.908;2023-07-16T02:25:41;19.30;99.90
23685;DHT22;12020;51.384;6.908;2023-07-16T02:28:08;19.20;99.90
23685;DHT22;12020;51.384;6.908;2023-07-16T02:30:41;19.20;99.90
23685;DHT22;12020;51.384;6.908;2023-07-16T02:33:17;19.20;99.90
23685;DHT22;12020;51.384;6.908;2023-07-16T02:35:51;19.20;99.90
23685;DHT22;12020;51.384;6.908;2023-07-16T02:38:20;19.20;99.90
23685;DHT22;12020;51.384;6.908;2023-07-16T02:40:47;19.20;99.90
23685;DHT22;12020;51.384;6.908;2023-07-16T02:43:15;19.20;99.90
23685;DHT22;12020;51.384;6.908;2023-07-16T02:45:41;19.20;99.90
23685;DHT22;12020;51.384;6.908;2023-07-16T02:48:07;19.20;99.90
23685;DHT22;12020;51.384;6.908;2023-07-16T02:50:39;19.20;99.90
23685;DHT22;12020;51.384;6.908;2023-07-16T02:53:25;19.20;99.90
23685;DHT22;12020;51.384;6.908;2023-07-16T02:55:52;19.10;99.90
23685;DHT22;12020;51.384;6.908;2023-07-16T02:58:34;19.10;99.90
23685;DHT22;12020;51.384;6.908;2023-07-16T03:01:00;19.10;99.90
23685;DHT22;12020;51.384;6.908;2023-07-16T03:03:30;19.10;99.90
23685;DHT22;12020;51.384;6.908;2023-07-16T03:06:02;19.10;99.90
23685;DHT22;12020;51.384;6.908;2023-07-16T03:08:28;19.10;99.90
23685;DHT22;12020;51.384;6.908;2023-07-16T03:10:57;19.00;99.90
23685;DHT22;12020;51.384;6.908;2023-07-16T03:13:36;19.00;99.90
23685;DHT22;12020;51.384;6.908;2023-07-16T03:16:02;18.90;99.90
23685;DHT22;12020;51.384;6.908;2023-07-16T03:18:29;18.90;99.90
23685;DHT22;12020;51.384;6.908;2023-07-16T03:21:00;18.90;99.90
23685;DHT22;12020;51.384;6.908;2023-07-16T03:23:27;18.80;99.90
23685;DHT22;12020;51.384;6.908;2023-07-16T03:26:06;18.80;99.90
23685;DHT22;12020;51.384;6.908;2023-07-16T03:28:32;18.70;99.90
23685;DHT22;12020;51.384;6.908;2023-07-16T03:31:01;18.70;99.90
23685;DHT22;12020;51.384;6.908;2023-07-16T03:33:34;18.70;99.90
23685;DHT22;12020;51.384;6.908;2023-07-16T03:36:01;18.70;99.90
23685;DHT22;12020;51.384;6.908;2023-07-16T03:38:27;18.60;99.90
23685;DHT22;12020;51.384;6.908;2023-07-16T03:41:16;18.60;99.90
23685;DHT22;12020;51.384;6.908;2023-07-16T03:43:56;18.60;99.90
23685;DHT22;12020;51.384;6.908;2023-07-16T03:46:24;18.60;99.90
23685;DHT22;12020;51.384;6.908;2023-07-16T03:48:53;18.50;99.90
23685;DHT22;12020;51.384;6.908;2023-07-16T03:51:25;18.50;99.90
23685;DHT22;12020;51.384;6.908;2023-07-16T03:53:51;18.50;99.90
23685;DHT22;12020;51.384;6.908;2023-07-16T03:56:22;18.50;99.90
23685;DHT22;12020;51.384;6.908;2023-07-16T03:59:06;18.40;99.90
23685;DHT22;12020;51.384;6.908;2023-07-16T04:01:36;18.40;99.90
23685;DHT22;12020;51.384;6.908;2023-07-16T04:04:03;18.40;99.90
23685;DHT22;12020;51.384;6.908;2023-07-16T04:06:39;18.40;99.90
23685;DHT22;12020;51.384;6.908;2023-07-16T04:09:10;18.40;99.90
23685;DHT22;12020;51.384;6.908;2023-07-16T04:11:37;18.40;99.90
23685;DHT22;12020;51.384;6.908;2023-07-16T04:14:14;18.40;99.90
23685;DHT22;12020;51.384;6.908;2023-07-16T04:16:40;18.40;99.90
23685;DHT22;12020;51.384;6.908;2023-07-16T04:19:09;18.40;99.90
23685;DHT22;12020;51.384;6.908;2023-07-16T04:21:37;18.40;99.90
23685;DHT22;12020;51.384;6.908;2023-07-16T04:24:25;18.40;99.90
23685;DHT22;12020;51.384;6.908;2023-07-16T04:27:02;18.40;99.90
23685;DHT22;12020;51.384;6.908;2023-07-16T04:29:39;18.40;99.90
23685;DHT22;12020;51.384;6.908;2023-07-16T04:32:14;18.30;99.90
23685;DHT22;12020;51.384;6.908;2023-07-16T04:34:41;18.30;99.90
23685;DHT22;12020;51.384;6.908;2023-07-16T04:37:07;18.30;99.90
23685;DHT22;12020;51.384;6.908;2023-07-16T04:39:37;18.30;99.90
23685;DHT22;12020;51.384;6.908;2023-07-16T04:42:23;18.30;99.90
23685;DHT22;12020;51.384;6.908;2023-07-16T04:44:50;18.30;99.90
23685;DHT22;12020;51.384;6.908;2023-07-16T04:47:17;18.40;99.90
23685;DHT22;12020;51.384;6.908;2023-07-16T04:49:44;18.40;99.90
23685;DHT22;12020;51.384;6.908;2023-07-16T04:52:21;18.40;99.90
23685;DHT22;12020;51.384;6.908;2023-07-16T04:54:48;18.40;99.90
23685;DHT22;12020;51.384;6.908;2023-07-16T04:57:19;18.40;99.90
23685;DHT22;12020;51.384;6.908;2023-07-16T04:59:46;18.40;99.90
23685;DHT22;12020;51.384;6.908;2023-07-16T05:02:17;18.40;99.90
23685;DHT22;12020;51.384;6.908;2023-07-16T05:04:54;18.40;99.90
23685;DHT22;12020;51.384;6.908;2023-07-16T05:07:24;18.40;99.90
23685;DHT22;12020;51.384;6.908;2023-07-16T05:09:51;18.40;99.90
23685;DHT22;12020;51.384;6.908;2023-07-16T05:12:39;18.40;99.90
23685;DHT22;12020;51.384;6.908;2023-07-16T05:15:10;18.40;99.90
23685;DHT22;12020;51.384;6.908;2023-07-16T05:17:38;18.40;99.90
23685;DHT22;12020;51.384;6.908;2023-07-16T05:20:10;18.40;99.90
23685;DHT22;12020;51.384;6.908;2023-07-16T05:22:36;18.50;99.90
23685;DHT22;12020;51.384;6.908;2023-07-16T05:25:03;18.50;99.90
23685;DHT22;12020;51.384;6.908;2023-07-16T05:27:31;18.50;99.90
23685;DHT22;12020;51.384;6.908;2023-07-16T05:30:00;18.50;99.90
23685;DHT22;12020;51.384;6.908;2023-07-16T05:32:33;18.50;99.90
23685;DHT22;12020;51.384;6.908;2023-07-16T05:35:16;18.60;99.90
23685;DHT22;12020;51.384;6.908;2023-07-16T05:37:49;18.60;99.90
23685;DHT22;12020;51.384;6.908;2023-07-16T05:40:22;18.60;99.90
23685;DHT22;12020;51.384;6.908;2023-07-16T05:42:50;18.60;99.90
23685;DHT22;12020;51.384;6.908;2023-07-16T05:45:16;18.60;99.90
23685;DHT22;12020;51.384;6.908;2023-07-16T05:47:52;18.60;99.90
23685;DHT22;12020;51.384;6.908;2023-07-16T05:50:20;18.60;99.90
23685;DHT22;12020;51.384;6.908;2023-07-16T05:52:53;18.60;99.90
23685;DHT22;12020;51.384;6.908;2023-07-16T05:55:28;18.60;99.90
23685;DHT22;12020;51.384;6.908;2023-07-16T05:57:54;18.70;99.90
23685;DHT22;12020;51.384;6.908;2023-07-16T06:00:20;18.70;99.90
23685;DHT22;12020;51.384;6.908;2023-07-16T06:02:46;18.70;99.90
23685;DHT22;12020;51.384;6.908;2023-07-16T06:05:11;18.70;99.90
23685;DHT22;12020;51.384;6.908;2023-07-16T06:07:38;18.80;99.90
23685;DHT22;12020;51.384;6.908;2023-07-16T06:10:04;18.80;99.90
23685;DHT22;12020;51.384;6.908;2023-07-16T06:12:30;18.80;99.90
23685;DHT22;12020;51.384;6.908;2023-07-16T06:14:56;18.80;99.90
23685;DHT22;12020;51.384;6.908;2023-07-16T06:17:22;18.80;99.90
23685;DHT22;12020;51.384;6.908;2023-07-16T06:19:49;18.80;99.90
23685;DHT22;12020;51.384;6.908;2023-07-16T06:22:16;18.90;99.90
23685;DHT22;12020;51.384;6.908;2023-07-16T06:24:52;18.90;99.90
23685;DHT22;12020;51.384;6.908;2023-07-16T06:27:18;18.90;99.90
23685;DHT22;12020;51.384;6.908;2023-07-16T06:29:52;18.90;99.90
23685;DHT22;12020;51.384;6.908;2023-07-16T06:32:21;18.90;99.90
23685;DHT22;12020;51.384;6.908;2023-07-16T06:34:50;19.00;99.90
23685;DHT22;12020;51.384;6.908;2023-07-16T06:37:36;19.00;99.90
23685;DHT22;12020;51.384;6.908;2023-07-16T06:40:08;19.00;99.90
23685;DHT22;12020;51.384;6.908;2023-07-16T06:42:36;19.00;99.90
23685;DHT22;12020;51.384;6.908;2023-07-16T06:45:08;19.10;99.90
23685;DHT22;12020;51.384;6.908;2023-07-16T06:47:35;19.10;99.90
23685;DHT22;12020;51.384;6.908;2023-07-16T06:50:03;19.20;99.90
23685;DHT22;12020;51.384;6.908;2023-07-16T06:52:41;19.20;99.90
23685;DHT22;12020;51.384;6.908;2023-07-16T06:55:15;19.20;99.90
23685;DHT22;12020;51.384;6.908;2023-07-16T06:57:50;19.20;99.90
23685;DHT22;12020;51.384;6.908;2023-07-16T07:00:18;19.20;99.90
23685;DHT22;12020;51.384;6.908;2023-07-16T07:02:44;19.20;99.90
23685;DHT22;12020;51.384;6.908;2023-07-16T07:05:23;19.30;99.90
23685;DHT22;12020;51.384;6.908;2023-07-16T07:07:50;19.30;99.90
23685;DHT22;12020;51.384;6.908;2023-07-16T07:10:20;19.30;99.90
23685;DHT22;12020;51.384;6.908;2023-07-16T07:15:22;19.40;99.90
23685;DHT22;12020;51.384;6.908;2023-07-16T07:17:51;19.50;99.90
23685;DHT22;12020;51.384;6.908;2023-07-16T07:20:18;19.50;99.90
23685;DHT22;12020;51.384;6.908;2023-07-16T07:22:49;19.60;99.90
23685;DHT22;12020;51.384;6.908;2023-07-16T07:25:28;19.70;99.90
23685;DHT22;12020;51.384;6.908;2023-07-16T07:27:57;19.70;99.90
23685;DHT22;12020;51.384;6.908;2023-07-16T07:30:23;19.70;99.90
23685;DHT22;12020;51.384;6.908;2023-07-16T07:32:52;19.80;99.90
23685;DHT22;12020;51.384;6.908;2023-07-16T07:35:19;19.80;99.90
23685;DHT22;12020;51.384;6.908;2023-07-16T07:37:49;19.80;99.90
23685;DHT22;12020;51.384;6.908;2023-07-16T07:42:55;20.00;99.90
23685;DHT22;12020;51.384;6.908;2023-07-16T07:48:02;20.20;99.90
23685;DHT22;12020;51.384;6.908;2023-07-16T07:50:40;20.30;99.90
23685;DHT22;12020;51.384;6.908;2023-07-16T07:53:08;20.50;99.90
23685;DHT22;12020;51.384;6.908;2023-07-16T07:55:47;20.60;99.90
23685;DHT22;12020;51.384;6.908;2023-07-16T07:58:15;20.80;99.90
23685;DHT22;12020;51.384;6.908;2023-07-16T08:00:41;20.90;99.90
23685;DHT22;12020;51.384;6.908;2023-07-16T08:03:10;21.00;99.90
23685;DHT22;12020;51.384;6.908;2023-07-16T08:05:51;21.30;99.90
23685;DHT22;12020;51.384;6.908;2023-07-16T08:08:19;21.50;99.90
23685;DHT22;12020;51.384;6.908;2023-07-16T08:10:46;21.60;99.90
23685;DHT22;12020;51.384;6.908;2023-07-16T08:13:14;21.80;99.90
23685;DHT22;12020;51.384;6.908;2023-07-16T08:15:42;22.00;99.90
23685;DHT22;12020;51.384;6.908;2023-07-16T08:18:30;22.10;99.90
23685;DHT22;12020;51.384;6.908;2023-07-16T08:24:10;22.50;99.90
23685;DHT22;12020;51.384;6.908;2023-07-16T08:26:37;22.70;99.90
23685;DHT22;12020;51.384;6.908;2023-07-16T08:29:08;23.00;99.90
23685;DHT22;12020;51.384;6.908;2023-07-16T08:31:34;23.20;99.90
23685;DHT22;12020;51.384;6.908;2023-07-16T08:34:10;23.40;99.90
23685;DHT22;12020;51.384;6.908;2023-07-16T08:36:36;23.70;99.90
23685;DHT22;12020;51.384;6.908;2023-07-16T08:39:07;23.80;99.90
23685;DHT22;12020;51.384;6.908;2023-07-16T08:41:38;23.90;99.90
23685;DHT22;12020;51.384;6.908;2023-07-16T08:44:08;23.90;99.90
23685;DHT22;12020;51.384;6.908;2023-07-16T08:46:34;23.90;99.90
23685;DHT22;12020;51.384;6.908;2023-07-16T08:49:07;24.00;99.90
23685;DHT22;12020;51.384;6.908;2023-07-16T08:51:36;24.10;99.90
23685;DHT22;12020;51.384;6.908;2023-07-16T08:59:18;24.30;99.90
23685;DHT22;12020;51.384;6.908;2023-07-16T09:06:58;23.90;99.90
23685;DHT22;12020;51.384;6.908;2023-07-16T09:09:28;23.90;99.90
23685;DHT22;12020;51.384;6.908;2023-07-16T09:11:56;23.80;99.90
23685;DHT22;12020;51.384;6.908;2023-07-16T09:19:37;23.70;99.90
23685;DHT22;12020;51.384;6.908;2023-07-16T09:22:09;23.90;99.90
23685;DHT22;12020;51.384;6.908;2023-07-16T09:24:36;24.10;99.90
23685;DHT22;12020;51.384;6.908;2023-07-16T09:27:04;24.40;99.90
23685;DHT22;12020;51.384;6.908;2023-07-16T09:29:29;24.40;99.90
23685;DHT22;12020;51.384;6.908;2023-07-16T09:32:06;24.50;99.90
23685;DHT22;12020;51.384;6.908;2023-07-16T09:34:43;24.70;99.90
23685;DHT22;12020;51.384;6.908;2023-07-16T09:37:09;24.60;99.90
23685;DHT22;12020;51.384;6.908;2023-07-16T09:39:36;24.50;99.90
23685;DHT22;12020;51.384;6.908;2023-07-16T09:42:03;24.30;99.90
23685;DHT22;12020;51.384;6.908;2023-07-16T09:44:29;24.10;99.90
23685;DHT22;12020;51.384;6.908;2023-07-16T09:46:55;24.00;99.90
23685;DHT22;12020;51.384;6.908;2023-07-16T09:49:22;24.00;99.90
23685;DHT22;12020;51.384;6.908;2023-07-16T09:51:48;24.30;99.90
23685;DHT22;12020;51.384;6.908;2023-07-16T09:54:19;24.50;99.90
23685;DHT22;12020;51.384;6.908;2023-07-16T09:56:48;24.80;99.90
23685;DHT22;12020;51.384;6.908;2023-07-16T09:59:18;25.00;99.90
23685;DHT22;12020;51.384;6.908;2023-07-16T10:01:45;25.00;99.90
23685;DHT22;12020;51.384;6.908;2023-07-16T10:04:16;25.00;99.90
23685;DHT22;12020;51.384;6.908;2023-07-16T10:06:52;25.00;99.90
23685;DHT22;12020;51.384;6.908;2023-07-16T10:09:53;25.00;99.90
23685;DHT22;12020;51.384;6.908;2023-07-16T10:12:21;24.90;99.90
23685;DHT22;12020;51.384;6.908;2023-07-16T10:14:54;24.70;99.90
23685;DHT22;12020;51.384;6.908;2023-07-16T10:17:23;24.60;99.90
23685;DHT22;12020;51.384;6.908;2023-07-16T10:20:07;24.50;99.90
23685;DHT22;12020;51.384;6.908;2023-07-16T10:22:45;24.50;99.90
23685;DHT22;12020;51.384;6.908;2023-07-16T10:27:49;24.70;99.90
23685;DHT22;12020;51.384;6.908;2023-07-16T10:30:17;24.90;99.90
23685;DHT22;12020;51.384;6.908;2023-07-16T10:32:54;25.00;99.90
23685;DHT22;12020;51.384;6.908;2023-07-16T10:35:20;25.10;99.90
23685;DHT22;12020;51.384;6.908;2023-07-16T10:37:49;25.10;99.90
23685;DHT22;12020;51.384;6.908;2023-07-16T10:40:14;25.10;99.90
23685;DHT22;12020;51.384;6.908;2023-07-16T10:42:42;25.20;99.90
23685;DHT22;12020;51.384;6.908;2023-07-16T10:45:12;25.10;99.90
23685;DHT22;12020;51.384;6.908;2023-07-16T10:47:50;25.30;99.90
23685;DHT22;12020;51.384;6.908;2023-07-16T10:50:23;25.40;99.90
23685;DHT22;12020;51.384;6.908;2023-07-16T10:52:53;25.50;99.90
23685;DHT22;12020;51.384;6.908;2023-07-16T10:55:19;25.50;99.90
23685;DHT22;12020;51.384;6.908;2023-07-16T10:57:50;25.60;99.90
23685;DHT22;12020;51.384;6.908;2023-07-16T11:00:18;25.40;99.90
23685;DHT22;12020;51.384;6.908;2023-07-16T11:02:44;25.50;99.90
23685;DHT22;12020;51.384;6.908;2023-07-16T11:05:17;25.60;99.90
23685;DHT22;12020;51.384;6.908;2023-07-16T11:07:47;25.60;99.90
23685;DHT22;12020;51.384;6.908;2023-07-16T11:10:18;25.40;99.90
23685;DHT22;12020;51.384;6.908;2023-07-16T11:12:49;25.30;99.90
23685;DHT22;12020;51.384;6.908;2023-07-16T11:15:16;25.30;99.90
23685;DHT22;12020;51.384;6.908;2023-07-16T11:17:48;25.30;99.90
23685;DHT22;12020;51.384;6.908;2023-07-16T11:20:19;25.30;99.90
23685;DHT22;12020;51.384;6.908;2023-07-16T11:22:57;25.10;99.90
23685;DHT22;12020;51.384;6.908;2023-07-16T11:25:24;25.10;99.90
23685;DHT22;12020;51.384;6.908;2023-07-16T11:27:54;25.10;99.90
23685;DHT22;12020;51.384;6.908;2023-07-16T11:30:24;25.00;99.90
23685;DHT22;12020;51.384;6.908;2023-07-16T11:33:01;24.90;99.90
23685;DHT22;12020;51.384;6.908;2023-07-16T11:35:37;24.80;99.90
23685;DHT22;12020;51.384;6.908;2023-07-16T11:38:07;24.80;99.90
23685;DHT22;12020;51.384;6.908;2023-07-16T11:40:36;24.80;99.90
23685;DHT22;12020;51.384;6.908;2023-07-16T11:43:10;24.60;99.90
23685;DHT22;12020;51.384;6.908;2023-07-16T11:45:36;24.40;99.90
23685;DHT22;12020;51.384;6.908;2023-07-16T11:48:03;24.40;99.90
23685;DHT22;12020;51.384;6.908;2023-07-16T11:50:30;24.40;99.90
23685;DHT22;12020;51.384;6.908;2023-07-16T11:52:58;24.40;99.90
23685;DHT22;12020;51.384;6.908;2023-07-16T11:55:25;24.30;99.90
23685;DHT22;12020;51.384;6.908;2023-07-16T11:57:51;24.20;99.90
23685;DHT22;12020;51.384;6.908;2023-07-16T12:00:17;24.10;99.90
23685;DHT22;12020;51.384;6.908;2023-07-16T12:02:44;24.10;99.90
23685;DHT22;12020;51.384;6.908;2023-07-16T12:05:17;24.10;99.90
23685;DHT22;12020;51.384;6.908;2023-07-16T12:07:43;24.10;99.90
23685;DHT22;12020;51.384;6.908;2023-07-16T12:10:10;24.10;99.90
23685;DHT22;12020;51.384;6.908;2023-07-16T12:12:40;24.10;99.90
23685;DHT22;12020;51.384;6.908;2023-07-16T12:15:07;24.20;99.90
23685;DHT22;12020;51.384;6.908;2023-07-16T12:17:33;24.10;99.90
23685;DHT22;12020;51.384;6.908;2023-07-16T12:19:59;24.20;99.90
23685;DHT22;12020;51.384;6.908;2023-07-16T12:22:25;24.10;99.90
23685;DHT22;12020;51.384;6.908;2023-07-16T12:24:52;24.10;99.90
23685;DHT22;12020;51.384;6.908;2023-07-16T12:27:17;24.10;99.90
23685;DHT22;12020;51.384;6.908;2023-07-16T12:29:44;24.10;99.90
23685;DHT22;12020;51.384;6.908;2023-07-16T12:32:10;24.10;99.90
23685;DHT22;12020;51.384;6.908;2023-07-16T12:34:36;24.10;99.90
23685;DHT22;12020;51.384;6.908;2023-07-16T12:37:03;24.20;99.90
23685;DHT22;12020;51.384;6.908;2023-07-16T12:39:31;24.20;99.90
23685;DHT22;12020;51.384;6.908;2023-07-16T12:41:56;24.30;99.90
23685;DHT22;12020;51.384;6.908;2023-07-16T12:44:22;24.30;99.90
23685;DHT22;12020;51.384;6.908;2023-07-16T12:46:49;24.30;99.90
23685;DHT22;12020;51.384;6.908;2023-07-16T12:49:15;24.20;99.90
23685;DHT22;12020;51.384;6.908;2023-07-16T12:51:41;24.20;99.90
23685;DHT22;12020;51.384;6.908;2023-07-16T12:54:07;24.30;99.90
23685;DHT22;12020;51.384;6.908;2023-07-16T12:56:53;24.30;99.90
23685;DHT22;12020;51.384;6.908;2023-07-16T12:59:19;24.30;99.90
23685;DHT22;12020;51.384;6.908;2023-07-16T13:01:51;24.40;99.90
23685;DHT22;12020;51.384;6.908;2023-07-16T13:06:53;24.40;99.90
23685;DHT22;12020;51.384;6.908;2023-07-16T13:12:07;24.60;99.90
23685;DHT22;12020;51.384;6.908;2023-07-16T13:14:43;24.60;99.90
23685;DHT22;12020;51.384;6.908;2023-07-16T13:17:16;24.60;99.90
23685;DHT22;12020;51.384;6.908;2023-07-16T13:35:16;24.40;99.90
23685;DHT22;12020;51.384;6.908;2023-07-16T13:38:03;24.50;99.90
23685;DHT22;12020;51.384;6.908;2023-07-16T13:43:25;24.70;99.90
23685;DHT22;12020;51.384;6.908;2023-07-16T13:45:57;24.80;99.90
23685;DHT22;12020;51.384;6.908;2023-07-16T13:48:24;24.70;99.90
23685;DHT22;12020;51.384;6.908;2023-07-16T13:51:06;24.60;99.90
23685;DHT22;12020;51.384;6.908;2023-07-16T13:53:32;24.50;99.90
23685;DHT22;12020;51.384;6.908;2023-07-16T13:55:59;24.40;99.90
23685;DHT22;12020;51.384;6.908;2023-07-16T13:58:26;24.30;99.90
23685;DHT22;12020;51.384;6.908;2023-07-16T14:00:54;24.40;99.90
23685;DHT22;12020;51.384;6.908;2023-07-16T14:03:32;24.40;99.90
23685;DHT22;12020;51.384;6.908;2023-07-16T14:06:14;24.50;99.90
23685;DHT22;12020;51.384;6.908;2023-07-16T14:08:42;24.40;99.90
23685;DHT22;12020;51.384;6.908;2023-07-16T14:11:11;24.30;99.90
23685;DHT22;12020;51.384;6.908;2023-07-16T14:13:43;24.40;99.90
23685;DHT22;12020;51.384;6.908;2023-07-16T14:16:12;24.40;99.90
23685;DHT22;12020;51.384;6.908;2023-07-16T14:18:44;24.50;99.90
23685;DHT22;12020;51.384;6.908;2023-07-16T14:21:20;24.70;99.90
23685;DHT22;12020;51.384;6.908;2023-07-16T14:23:59;24.70;99.90
23685;DHT22;12020;51.384;6.908;2023-07-16T14:26:32;24.90;99.90
23685;DHT22;12020;51.384;6.908;2023-07-16T14:29:05;25.00;99.90
23685;DHT22;12020;51.384;6.908;2023-07-16T14:31:31;24.90;99.90
23685;DHT22;12020;51.384;6.908;2023-07-16T14:33:56;24.90;99.90
23685;DHT22;12020;51.384;6.908;2023-07-16T14:36:23;24.80;99.90
23685;DHT22;12020;51.384;6.908;2023-07-16T14:38:58;24.80;99.90
23685;DHT22;12020;51.384;6.908;2023-07-16T14:41:23;24.80;99.90
23685;DHT22;12020;51.384;6.908;2023-07-16T14:43:52;24.80;99.90
23685;DHT22;12020;51.384;6.908;2023-07-16T14:46:18;24.80;99.90
23685;DHT22;12020;51.384;6.908;2023-07-16T14:48:47;24.90;99.90
23685;DHT22;12020;51.384;6.908;2023-07-16T14:51:13;24.90;99.90
23685;DHT22;12020;51.384;6.908;2023-07-16T14:53:39;25.00;99.90
23685;DHT22;12020;51.384;6.908;2023-07-16T14:56:05;25.00;99.90
23685;DHT22;12020;51.384;6.908;2023-07-16T14:58:33;25.00;99.90
23685;DHT22;12020;51.384;6.908;2023-07-16T15:01:02;25.00;99.90
23685;DHT22;12020;51.384;6.908;2023-07-16T15:03:31;25.00;99.90
23685;DHT22;12020;51.384;6.908;2023-07-16T15:05:57;25.00;99.90
23685;DHT22;12020;51.384;6.908;2023-07-16T15:08:25;25.00;99.90
23685;DHT22;12020;51.384;6.908;2023-07-16T15:10:55;25.00;99.90
23685;DHT22;12020;51.384;6.908;2023-07-16T15:13:22;25.00;99.90
23685;DHT22;12020;51.384;6.908;2023-07-16T15:15:51;24.90;99.90
23685;DHT22;12020;51.384;6.908;2023-07-16T15:18:19;24.80;99.60
23685;DHT22;12020;51.384;6.908;2023-07-16T15:20:45;24.80;99.90
23685;DHT22;12020;51.384;6.908;2023-07-16T15:23:12;24.70;99.70
23685;DHT22;12020;51.384;6.908;2023-07-16T15:25:37;24.70;99.90
23685;DHT22;12020;51.384;6.908;2023-07-16T15:28:05;24.60;99.90
23685;DHT22;12020;51.384;6.908;2023-07-16T15:30:31;24.50;99.90
23685;DHT22;12020;51.384;6.908;2023-07-16T15:32:56;24.50;99.90
23685;DHT22;12020;51.384;6.908;2023-07-16T15:35:22;24.50;99.90
23685;DHT22;12020;51.384;6.908;2023-07-16T15:37:47;24.50;99.90
23685;DHT22;12020;51.384;6.908;2023-07-16T15:40:15;24.60;99.90
23685;DHT22;12020;51.384;6.908;2023-07-16T15:42:41;24.60;99.90
23685;DHT22;12020;51.384;6.908;2023-07-16T15:45:11;24.60;99.90
23685;DHT22;12020;51.384;6.908;2023-07-16T15:47:42;24.70;99.90
23685;DHT22;12020;51.384;6.908;2023-07-16T15:50:09;24.70;99.90
23685;DHT22;12020;51.384;6.908;2023-07-16T15:52:37;24.60;99.90
23685;DHT22;12020;51.384;6.908;2023-07-16T15:55:03;24.60;99.90
23685;DHT22;12020;51.384;6.908;2023-07-16T15:57:29;24.50;99.70
23685;DHT22;12020;51.384;6.908;2023-07-16T15:59:57;24.50;99.80
23685;DHT22;12020;51.384;6.908;2023-07-16T16:02:22;24.50;99.70
23685;DHT22;12020;51.384;6.908;2023-07-16T16:04:49;24.40;99.70
23685;DHT22;12020;51.384;6.908;2023-07-16T16:07:15;24.30;99.50
23685;DHT22;12020;51.384;6.908;2023-07-16T16:09:40;24.30;99.20
23685;DHT22;12020;51.384;6.908;2023-07-16T16:12:08;24.30;99.10
23685;DHT22;12020;51.384;6.908;2023-07-16T16:14:34;24.30;99.70
23685;DHT22;12020;51.384;6.908;2023-07-16T16:16:59;24.30;99.80
23685;DHT22;12020;51.384;6.908;2023-07-16T16:19:25;24.30;99.90
23685;DHT22;12020;51.384;6.908;2023-07-16T16:21:52;24.20;99.90
23685;DHT22;12020;51.384;6.908;2023-07-16T16:24:17;24.30;99.90
23685;DHT22;12020;51.384;6.908;2023-07-16T16:26:43;24.30;99.90
23685;DHT22;12020;51.384;6.908;2023-07-16T16:29:08;24.30;99.90
23685;DHT22;12020;51.384;6.908;2023-07-16T16:31:34;24.20;99.90
23685;DHT22;12020;51.384;6.908;2023-07-16T16:34:00;24.20;99.90
23685;DHT22;12020;51.384;6.908;2023-07-16T16:36:26;24.20;99.90
23685;DHT22;12020;51.384;6.908;2023-07-16T16:38:51;24.10;99.90
23685;DHT22;12020;51.384;6.908;2023-07-16T16:41:17;24.10;99.90
23685;DHT22;12020;51.384;6.908;2023-07-16T16:43:44;24.10;99.90
23685;DHT22;12020;51.384;6.908;2023-07-16T16:46:10;24.00;99.90
23685;DHT22;12020;51.384;6.908;2023-07-16T16:48:36;24.00;99.90
23685;DHT22;12020;51.384;6.908;2023-07-16T16:51:03;24.10;99.90